Time;durP1;ratioP1;P1;durP2;ratioP2;P2;SDS_P1;SDS_P2;PMS_P1;PMS_P2;Temp;Humidity;BMP_temperature;BMP_pressure;BME280_temperature;BME280_humidity;BME280_pressure;Samples;Min_cycle;Max_cycle;Signal;HPM_P1;HPM_P2
2023/11/30 00:04:10;;;;;;;9.60;8.60;;;0.20;99.90;;;0.69;100.00;96695.75;10199804;28;20233;-69
2023/11/30 00:09:13;;;;;;;8.17;7.47;;;0.10;99.90;;;0.69;100.00;96690.72;10193808;28;20233;-69
2023/11/30 00:14:17;;;;;;;8.70;7.80;;;0.10;99.90;;;0.66;100.00;96687.97;10188567;28;20229;-68
2023/11/30 00:19:21;;;;;;;8.70;7.90;;;0.00;99.90;;;0.50;100.00;96695.09;10196026;28;20255;-69
2023/11/30 00:24:24;;;;;;;10.13;9.20;;;-0.10;99.90;;;0.48;100.00;96691.56;10191016;28;20245;-68
2023/11/30 00:29:28;;;;;;;10.57;9.57;;;-0.10;99.90;;;0.37;100.00;96689.16;10204429;28;20299;-68
2023/11/30 00:34:31;;;;;;;11.63;10.43;;;-0.20;99.90;;;0.38;100.00;96685.84;10215248;28;20234;-68
2023/11/30 00:39:34;;;;;;;10.23;9.23;;;-0.20;99.90;;;0.37;100.00;96684.13;10192779;28;20246;-68
2023/11/30 00:44:39;;;;;;;9.23;8.43;;;-0.20;99.90;;;0.28;100.00;96670.81;10200012;28;20235;-69
2023/11/30 00:49:42;;;;;;;8.77;8.00;;;-0.30;99.90;;;0.22;100.00;96665.34;10204307;28;20235;-67
2023/11/30 00:54:45;;;;;;;8.93;8.13;;;-0.30;99.90;;;0.21;100.00;96656.06;10197415;28;20683;-69
2023/11/30 00:59:49;;;;;;;9.17;8.30;;;-0.40;99.90;;;0.07;100.00;96654.13;10196045;28;20240;-68
2023/11/30 01:04:52;;;;;;;7.83;7.13;;;-0.40;99.90;;;0.11;100.00;96646.91;10189943;28;20608;-69
2023/11/30 01:09:55;;;;;;;9.13;8.33;;;-0.40;99.90;;;0.11;100.00;96646.06;10191307;29;20238;-69
2023/11/30 01:15:00;;;;;;;8.43;7.70;;;-0.40;99.90;;;0.11;100.00;96646.06;10189767;28;20226;-69
2023/11/30 01:20:04;;;;;;;8.50;7.80;;;-0.50;99.90;;;0.08;100.00;96656.72;10177798;28;20615;-71
2023/11/30 01:25:08;;;;;;;8.83;7.93;;;-0.40;99.90;;;0.13;100.00;96669.66;10188518;28;20283;-67
2023/11/30 01:30:13;;;;;;;8.60;7.80;;;-0.40;99.90;;;0.24;100.00;96673.88;10186362;28;20239;-69
2023/11/30 01:35:17;;;;;;;8.97;8.17;;;-0.30;99.90;;;0.31;100.00;96665.16;10188565;28;20232;-71
2023/11/30 01:40:20;;;;;;;8.57;7.63;;;-0.20;99.90;;;0.27;100.00;96669.09;10204278;28;20627;-70
2023/11/30 01:45:24;;;;;;;9.07;8.37;;;-0.30;99.90;;;0.22;100.00;96645.22;10248037;28;20251;-68
2023/11/30 01:50:28;;;;;;;8.53;7.73;;;-0.30;99.90;;;0.35;100.00;96635.38;10194025;28;20294;-68
2023/11/30 01:55:31;;;;;;;9.57;8.60;;;-0.20;99.90;;;0.23;100.00;96636.97;10196053;28;20743;-70
2023/11/30 02:00:37;;;;;;;7.47;6.87;;;-0.30;99.90;;;0.28;100.00;96640.69;10189883;29;20233;-69
2023/11/30 02:05:40;;;;;;;8.00;7.40;;;-0.40;99.90;;;0.13;100.00;96626.97;10195213;28;20243;-70
2023/11/30 02:10:44;;;;;;;8.97;7.77;;;-0.50;99.90;;;0.10;100.00;96634.25;10188650;28;20232;-70
2023/11/30 02:15:48;;;;;;;9.20;8.10;;;-0.40;99.90;;;0.09;100.00;96618.31;10183223;28;20245;-68
2023/11/30 02:20:51;;;;;;;8.10;7.40;;;-0.40;99.90;;;-0.11;100.00;96621.81;10190188;28;20239;-74
2023/11/30 02:25:56;;;;;;;7.73;7.13;;;-0.50;99.90;;;-0.06;100.00;96607.97;10192839;28;20259;-67
2023/11/30 02:30:59;;;;;;;8.87;8.07;;;-0.50;99.90;;;-0.02;100.00;96589.88;10192881;28;20317;-69
2023/11/30 02:36:03;;;;;;;9.23;8.43;;;-0.50;99.90;;;-0.03;100.00;96578.06;10197227;28;20614;-71
2023/11/30 02:41:09;;;;;;;8.40;7.60;;;-0.50;99.90;;;0.07;100.00;96577.13;10191313;28;20237;-68
2023/11/30 02:46:12;;;;;;;8.63;7.93;;;-0.40;99.90;;;-0.05;100.00;96582.09;10189288;28;20287;-67
2023/11/30 02:51:15;;;;;;;9.50;8.70;;;-0.50;99.90;;;-0.08;100.00;96579.34;10194000;28;20266;-70
2023/11/30 02:56:20;;;;;;;9.80;9.00;;;-0.50;99.90;;;-0.05;100.00;96574.56;10188181;28;20245;-69
2023/11/30 03:01:23;;;;;;;9.37;8.37;;;-0.50;99.90;;;-0.03;100.00;96563.00;10187759;28;20237;-70
2023/11/30 03:06:26;;;;;;;8.97;8.17;;;-0.50;99.90;;;0.06;100.00;96556.91;10185539;28;20286;-70
2023/11/30 03:11:31;;;;;;;9.07;8.17;;;-0.50;99.90;;;0.13;100.00;96570.06;10188018;28;20966;-69
2023/11/30 03:16:34;;;;;;;8.33;7.53;;;-0.40;99.90;;;0.03;100.00;96581.78;10188169;28;20510;-69
2023/11/30 03:21:37;;;;;;;8.00;7.20;;;-0.60;99.90;;;0.01;100.00;96580.81;10186188;28;20253;-69
2023/11/30 03:26:42;;;;;;;8.97;8.13;;;-0.50;99.90;;;0.06;100.00;96579.50;10185540;29;20226;-71
2023/11/30 03:31:45;;;;;;;8.80;8.10;;;-0.60;99.90;;;0.01;100.00;96564.13;10185996;28;20312;-69
2023/11/30 03:36:48;;;;;;;8.80;8.10;;;-0.60;99.90;;;0.01;100.00;96553.19;10183850;28;20232;-69
2023/11/30 03:41:53;;;;;;;9.80;8.90;;;-0.60;99.90;;;0.02;100.00;96549.91;10184884;28;20239;-69
2023/11/30 03:46:56;;;;;;;8.87;8.07;;;-0.60;99.90;;;0.02;100.00;96539.88;10185309;28;20246;-70
2023/11/30 03:51:59;;;;;;;9.00;8.10;;;-0.60;99.90;;;-0.06;100.00;96521.69;10191365;29;20243;-70
2023/11/30 03:57:03;;;;;;;8.20;7.40;;;-0.60;99.90;;;0.03;100.00;96522.41;10185800;28;20237;-70
2023/11/30 04:02:07;;;;;;;8.10;7.40;;;-0.60;99.90;;;-0.07;100.00;96525.84;10190615;28;20231;-70
2023/11/30 04:07:10;;;;;;;8.53;7.73;;;-0.60;99.90;;;0.01;100.00;96525.56;10200347;28;20236;-70
2023/11/30 04:12:15;;;;;;;7.73;7.03;;;-0.60;99.90;;;-0.06;100.00;96527.63;10197133;28;20234;-69
2023/11/30 04:17:18;;;;;;;9.33;8.43;;;-0.70;99.90;;;-0.08;100.00;96504.03;10199501;28;20237;-70
2023/11/30 04:22:22;;;;;;;8.67;7.67;;;-0.70;99.90;;;-0.18;100.00;96501.56;10199572;29;20382;-70
2023/11/30 04:27:27;;;;;;;7.40;6.70;;;-0.80;99.90;;;-0.20;100.00;96493.06;10199396;28;20231;-69
2023/11/30 04:32:30;;;;;;;7.03;6.43;;;-0.80;99.90;;;-0.10;100.00;96485.44;10197674;28;20226;-70
2023/11/30 04:37:33;;;;;;;7.03;6.43;;;-0.70;99.90;;;-0.09;100.00;96482.16;10197458;28;20249;-69
2023/11/30 04:42:38;;;;;;;7.03;6.40;;;-0.70;99.90;;;-0.09;100.00;96466.22;10198608;29;20237;-69
2023/11/30 04:47:41;;;;;;;9.27;8.43;;;-0.70;99.90;;;-0.20;100.00;96473.00;10201087;29;20321;-69
2023/11/30 04:52:44;;;;;;;9.07;8.27;;;-0.70;99.90;;;-0.18;100.00;96466.41;10194155;28;20355;-69
2023/11/30 04:57:49;;;;;;;9.27;8.40;;;-0.70;99.90;;;-0.25;100.00;96467.59;10194931;29;20350;-69
2023/11/30 05:02:55;;;;;;;9.10;8.20;;;-0.70;99.90;;;-0.26;100.00;96472.50;10199272;28;20238;-68
2023/11/30 05:07:59;;;;;;;9.67;8.77;;;-0.80;99.90;;;-0.27;100.00;96468.25;10197235;28;20236;-69
2023/11/30 05:13:03;;;;;;;9.07;8.17;;;-0.70;99.90;;;-0.21;100.00;96456.16;10188811;28;20249;-69
2023/11/30 05:18:07;;;;;;;11.03;9.93;;;-0.70;99.90;;;-0.20;100.00;96452.00;10192430;28;20239;-71
2023/11/30 05:23:10;;;;;;;11.63;10.43;;;-0.70;99.90;;;-0.25;100.00;96454.19;10191296;28;20709;-70
2023/11/30 05:28:15;;;;;;;12.07;10.97;;;-0.70;99.90;;;-0.33;100.00;96452.72;10184069;28;20285;-69
2023/11/30 05:33:18;;;;;;;11.07;9.97;;;-0.80;99.90;;;-0.33;100.00;96460.25;10161773;28;20264;-70
2023/11/30 05:38:21;;;;;;;10.50;9.60;;;-0.80;99.90;;;-0.39;100.00;96462.31;10153688;28;20230;-69
2023/11/30 05:43:26;;;;;;;10.87;9.87;;;-0.80;99.90;;;-0.43;100.00;96461.19;10144869;28;20245;-70
2023/11/30 05:48:29;;;;;;;11.30;10.20;;;-0.90;99.90;;;-0.48;100.00;96468.38;10150540;28;20248;-68
2023/11/30 05:53:32;;;;;;;10.57;9.60;;;-0.90;99.90;;;-0.43;100.00;96458.66;10152787;28;20234;-75
2023/11/30 05:58:37;;;;;;;12.10;10.90;;;-0.80;99.90;;;-0.35;100.00;96457.63;10155912;28;20234;-73
2023/11/30 06:03:41;;;;;;;11.80;10.53;;;-0.80;99.90;;;-0.35;100.00;96451.72;10176488;28;20490;-71
2023/11/30 06:08:44;;;;;;;11.20;9.90;;;-0.80;99.90;;;-0.41;100.00;96446.25;10188100;28;20759;-69
2023/11/30 06:13:49;;;;;;;10.83;9.73;;;-0.80;99.90;;;-0.39;100.00;96452.28;10177516;28;20237;-71
2023/11/30 06:18:52;;;;;;;10.70;9.77;;;-0.80;99.90;;;-0.39;100.00;96448.13;10185917;28;20239;-68
2023/11/30 06:23:55;;;;;;;8.77;7.93;;;-0.80;99.90;;;-0.31;100.00;96444.56;10178946;28;20247;-72
2023/11/30 06:28:59;;;;;;;10.20;8.30;;;-0.70;99.90;;;-0.29;100.00;96432.09;10157652;28;20732;-68
2023/11/30 06:34:02;;;;;;;8.90;8.00;;;-0.80;99.90;;;-0.15;100.00;96418.94;10171292;28;20260;-76
2023/11/30 06:39:06;;;;;;;7.90;7.20;;;-0.60;99.90;;;-0.03;100.00;96411.44;10180628;28;20237;-71
2023/11/30 06:44:11;;;;;;;9.20;8.30;;;-0.60;99.90;;;-0.27;100.00;96413.03;10177032;28;20237;-71
2023/11/30 06:49:14;;;;;;;11.63;10.37;;;-0.70;99.90;;;-0.21;100.00;96420.13;10364331;23;20255;-81
2023/11/30 06:54:17;;;;;;;9.60;8.70;;;-0.70;99.90;;;-0.20;100.00;96421.88;10358647;28;20238;-78
2023/11/30 06:59:22;;;;;;;9.47;8.67;;;-0.70;99.90;;;0.00;100.00;96404.16;10325281;28;20283;-79
2023/11/30 07:04:28;;;;;;;8.47;7.77;;;-0.60;99.90;;;0.11;100.00;96382.31;10329582;28;20231;-78
2023/11/30 07:09:31;;;;;;;9.67;8.73;;;-0.50;99.90;;;0.03;100.00;96401.88;10324898;28;20770;-78
2023/11/30 07:14:36;;;;;;;9.67;8.80;;;-0.50;99.90;;;0.10;100.00;96400.66;10324596;28;20589;-78
2023/11/30 07:19:53;;;;;;;9.50;8.50;;;-0.40;99.90;;;-0.13;100.00;96399.00;10323121;28;20314;-77
2023/11/30 07:24:57;;;;;;;8.77;7.97;;;-0.50;99.90;;;-0.19;100.00;96416.97;10317621;28;20246;-78
2023/11/30 07:30:01;;;;;;;8.80;8.00;;;-0.60;99.90;;;-0.08;100.00;96403.59;10325836;28;20227;-80
2023/11/30 07:35:06;;;;;;;8.20;7.43;;;-0.50;99.90;;;-0.01;100.00;96394.84;10329982;28;22451;-78
2023/11/30 07:40:10;;;;;;;7.00;6.40;;;-0.40;99.90;;;0.03;100.00;96380.88;10334835;28;20233;-80
2023/11/30 07:45:15;;;;;;;7.20;6.50;;;-0.50;99.90;;;0.08;100.00;96384.59;10331306;28;20288;-78
2023/11/30 07:50:18;;;;;;;11.13;10.03;;;-0.40;99.90;;;-0.05;100.00;96405.44;10340262;28;21022;-82
2023/11/30 07:55:21;;;;;;;14.57;11.30;;;-0.50;99.90;;;0.03;100.00;96406.00;10332440;28;20614;-81
2023/11/30 08:00:26;;;;;;;11.13;9.83;;;-0.40;99.90;;;-0.01;100.00;96404.91;10337010;28;20306;-80
2023/11/30 08:05:29;;;;;;;14.63;12.40;;;-0.40;99.90;;;0.28;100.00;96389.44;10333877;28;20239;-82
2023/11/30 08:10:33;;;;;;;12.77;11.37;;;-0.20;99.90;;;0.36;100.00;96393.38;10326871;28;20261;-80
2023/11/30 08:15:38;;;;;;;7.93;7.13;;;-0.10;99.90;;;0.37;100.00;96386.69;10327334;28;20225;-81
2023/11/30 08:20:43;;;;;;;7.93;7.13;;;-0.10;99.90;;;0.48;100.00;96363.22;10334897;28;20231;-81
2023/11/30 08:25:46;;;;;;;8.07;7.20;;;-0.10;99.90;;;0.56;100.00;96381.34;10333455;28;20255;-81
2023/11/30 08:30:51;;;;;;;8.17;7.47;;;0.00;99.90;;;0.73;100.00;96385.94;10332574;28;20232;-79
2023/11/30 08:35:54;;;;;;;14.07;12.33;;;0.20;99.90;;;0.92;100.00;96377.13;10328522;28;20333;-78
2023/11/30 08:40:57;;;;;;;9.83;8.83;;;0.40;99.90;;;1.15;100.00;96382.13;10324923;28;20235;-81
2023/11/30 08:46:02;;;;;;;9.50;8.70;;;0.50;99.90;;;1.19;100.00;96381.56;10329873;28;20238;-80
2023/11/30 08:51:07;;;;;;;9.20;8.30;;;0.60;99.90;;;1.39;100.00;96374.50;10379182;28;20214;-80
2023/11/30 08:56:11;;;;;;;9.80;9.00;;;0.70;99.90;;;1.46;100.00;96359.03;10340894;28;20247;-79
2023/11/30 09:01:16;;;;;;;10.33;9.33;;;0.70;99.90;;;1.45;100.00;96352.25;10336035;28;20241;-81
2023/11/30 09:06:19;;;;;;;10.47;9.37;;;0.70;99.90;;;1.32;100.00;96366.53;10331859;28;20242;-78
2023/11/30 09:11:23;;;;;;;10.80;9.80;;;0.70;99.90;;;1.38;100.00;96356.03;10345671;28;20231;-80
2023/11/30 09:16:28;;;;;;;9.87;8.97;;;0.70;99.90;;;1.56;100.00;96346.31;10349604;28;20246;-80
2023/11/30 09:21:32;;;;;;;11.00;10.00;;;0.80;99.90;;;1.54;100.00;96332.72;10334331;28;20223;-79
2023/11/30 09:26:35;;;;;;;13.53;12.13;;;0.80;99.90;;;1.61;100.00;96334.91;10334157;28;20227;-81
2023/11/30 09:31:42;;;;;;;15.80;14.17;;;0.90;99.90;;;1.68;100.00;96347.09;10334264;28;20269;-80
2023/11/30 09:36:45;;;;;;;13.03;11.73;;;1.10;99.90;;;1.75;100.00;96349.28;10317130;28;20235;-80
2023/11/30 09:41:48;;;;;;;14.13;11.63;;;1.10;99.90;;;1.75;100.00;96350.91;10315713;28;21006;-77
2023/11/30 09:46:53;;;;;;;11.07;10.07;;;1.10;99.90;;;1.97;100.00;96343.09;10318342;28;20246;-81
2023/11/30 09:51:56;;;;;;;12.27;9.90;;;1.20;99.90;;;1.89;100.00;96332.53;10323055;28;20223;-82
2023/11/30 09:57:00;;;;;;;10.73;9.57;;;1.10;99.90;;;1.89;100.00;96321.56;10352554;28;20312;-82
2023/11/30 10:02:09;;;;;;;12.87;11.57;;;1.20;99.90;;;1.87;100.00;96336.59;10346168;28;20222;-82
2023/11/30 10:07:13;;;;;;;13.07;11.23;;;1.20;99.90;;;1.73;100.00;96328.13;10334615;28;20770;-82
2023/11/30 10:12:19;;;;;;;13.40;12.00;;;1.20;99.90;;;1.98;100.00;96323.06;10335221;28;20252;-81
2023/11/30 10:17:27;;;;;;;13.93;11.67;;;1.40;99.90;;;2.08;100.00;96327.03;10332783;28;20312;-81
2023/11/30 10:22:30;;;;;;;15.07;12.90;;;1.50;99.90;;;2.27;100.00;96320.66;10335297;28;20234;-81
2023/11/30 10:27:36;;;;;;;15.33;13.93;;;1.60;99.90;;;2.25;100.00;96307.94;10333145;28;20243;-81
2023/11/30 10:32:42;;;;;;;14.77;13.37;;;1.60;99.90;;;2.17;100.00;96294.84;10333885;28;21302;-82
2023/11/30 10:37:50;;;;;;;11.63;10.43;;;1.60;99.90;;;2.07;100.00;96282.47;10333307;28;20239;-82
2023/11/30 10:42:53;;;;;;;13.17;11.87;;;1.40;99.90;;;2.20;100.00;96277.44;10326483;28;20277;-80
2023/11/30 10:47:59;;;;;;;13.70;12.40;;;1.60;99.90;;;2.35;100.00;96274.13;10325778;28;20241;-80
2023/11/30 10:53:03;;;;;;;13.70;12.40;;;1.70;99.90;;;2.41;100.00;96270.34;10366795;28;20787;-80
2023/11/30 10:58:08;;;;;;;13.77;11.90;;;1.80;99.90;;;2.48;100.00;96262.34;10330316;28;20234;-80
2023/11/30 11:03:15;;;;;;;12.83;11.53;;;1.90;99.90;;;2.70;100.00;96259.50;10327941;28;20252;-80
2023/11/30 11:08:19;;;;;;;14.20;12.70;;;2.20;99.90;;;2.91;100.00;96259.91;10355113;28;20236;-81
2023/11/30 11:13:24;;;;;;;19.77;17.77;;;2.30;99.90;;;2.90;100.00;96249.75;10359918;28;20373;-79
2023/11/30 11:18:32;;;;;;;16.33;14.60;;;2.40;99.90;;;3.20;100.00;96244.75;10361884;28;20230;-79
2023/11/30 11:23:36;;;;;;;13.43;12.07;;;2.60;99.90;;;3.31;100.00;96247.13;10362141;28;20230;-78
2023/11/30 11:28:41;;;;;;;16.67;13.63;;;2.70;99.90;;;3.69;100.00;96257.69;10361636;28;20245;-79
2023/11/30 11:33:46;;;;;;;12.90;11.00;;;3.00;99.90;;;3.54;100.00;96256.03;10359281;28;20779;-84
2023/11/30 11:38:49;;;;;;;12.00;10.90;;;2.90;99.90;;;3.71;98.70;96264.59;10367794;28;20238;-82
2023/11/30 11:43:53;;;;;;;12.60;11.40;;;3.00;99.90;;;3.65;97.11;96261.72;10363148;28;20265;-83
2023/11/30 11:48:57;;;;;;;12.40;11.20;;;3.00;99.90;;;3.67;96.64;96246.66;10362509;28;20229;-82
2023/11/30 11:54:01;;;;;;;11.87;10.87;;;3.00;99.90;;;3.63;95.21;96229.56;10366852;28;20265;-80
2023/11/30 11:59:04;;;;;;;12.37;11.27;;;3.00;99.90;;;3.93;94.78;96206.03;10366922;28;20726;-82
2023/11/30 12:04:09;;;;;;;11.80;10.57;;;3.20;99.90;;;3.67;92.90;96206.25;10359458;28;20977;-79
2023/11/30 12:09:13;;;;;;;10.83;9.73;;;3.20;99.90;;;3.91;94.20;96219.38;10360708;28;20653;-77
2023/11/30 12:14:16;;;;;;;11.73;10.70;;;3.30;99.90;;;4.11;92.03;96233.09;10357871;28;20226;-78
2023/11/30 12:19:21;;;;;;;14.50;13.00;;;3.50;99.90;;;4.05;90.93;96242.09;10358135;28;20330;-80
2023/11/30 12:24:24;;;;;;;11.57;10.40;;;3.50;99.90;;;3.95;89.43;96231.38;10364406;28;20688;-77
2023/11/30 12:29:28;;;;;;;11.63;10.33;;;3.30;99.90;;;3.90;90.91;96225.22;10367399;28;20222;-80
2023/11/30 12:34:32;;;;;;;12.00;10.80;;;3.30;99.90;;;4.14;90.23;96225.69;10366638;28;20226;-78
2023/11/30 12:39:36;;;;;;;10.77;9.70;;;3.50;99.90;;;3.92;92.42;96216.03;10368216;28;20246;-80
2023/11/30 12:44:39;;;;;;;10.40;9.40;;;3.40;99.90;;;3.87;92.97;96222.53;10367699;28;20233;-80
2023/11/30 12:49:44;;;;;;;11.10;10.07;;;3.30;99.90;;;4.15;90.66;96218.19;10370811;28;20857;-81
2023/11/30 12:54:48;;;;;;;10.87;9.87;;;3.50;99.90;;;4.09;88.40;96219.50;10370105;28;20222;-81
2023/11/30 12:59:52;;;;;;;11.90;10.13;;;3.40;99.90;;;4.15;90.64;96222.34;10370545;28;20265;-81
2023/11/30 13:04:56;;;;;;;10.80;9.80;;;3.40;99.90;;;3.78;90.04;96222.88;10370683;28;20715;-80
2023/11/30 13:10:00;;;;;;;10.07;9.17;;;3.20;99.90;;;3.70;90.82;96216.50;10366638;28;20257;-83
2023/11/30 13:15:06;;;;;;;9.87;8.87;;;3.10;99.90;;;3.73;92.58;96222.59;10369174;28;20293;-81
2023/11/30 13:20:13;;;;;;;9.83;8.93;;;3.20;99.90;;;3.97;90.20;96218.03;10360647;28;20226;-80
2023/11/30 13:25:17;;;;;;;10.37;9.37;;;3.20;99.90;;;3.84;91.86;96205.53;10366744;28;20317;-79
2023/11/30 13:30:21;;;;;;;9.90;9.00;;;3.20;99.90;;;3.87;92.62;96200.63;10360917;28;20227;-81
2023/11/30 13:35:25;;;;;;;9.97;9.17;;;3.20;99.90;;;3.86;90.24;96214.03;10362097;28;20235;-81
2023/11/30 13:40:30;;;;;;;10.30;9.40;;;3.20;99.90;;;3.91;91.82;96210.13;10366243;28;20230;-84
2023/11/30 13:45:34;;;;;;;10.00;9.10;;;3.30;99.90;;;3.83;92.62;96213.88;10369085;28;20253;-83
2023/11/30 13:50:38;;;;;;;10.20;9.30;;;3.20;99.90;;;3.68;93.56;96215.53;10365732;28;20229;-79
2023/11/30 13:55:56;;;;;;;11.10;10.10;;;3.10;99.90;;;3.71;93.78;96208.13;10364821;28;20257;-80
2023/11/30 14:00:59;;;;;;;11.47;10.37;;;3.10;99.90;;;3.68;94.63;96197.88;10368836;28;20218;-80
2023/11/30 14:06:05;;;;;;;11.77;10.67;;;3.10;99.90;;;3.71;93.24;96209.00;10366671;28;20230;-80
2023/11/30 14:11:11;;;;;;;9.30;8.47;;;3.10;99.90;;;3.60;94.98;96177.22;10370445;28;20254;-79
2023/11/30 14:16:15;;;;;;;9.80;8.80;;;3.00;99.90;;;3.52;95.77;96191.97;10370462;28;20226;-81
2023/11/30 14:21:20;;;;;;;9.27;8.27;;;2.90;99.90;;;3.58;96.89;96188.91;10363233;28;20218;-78
2023/11/30 14:26:24;;;;;;;9.87;8.87;;;3.00;99.90;;;3.55;96.23;96197.19;10359651;28;20230;-79
2023/11/30 14:31:29;;;;;;;9.50;8.63;;;3.00;99.90;;;3.45;97.03;96189.84;10360481;28;20226;-81
2023/11/30 14:36:33;;;;;;;9.47;8.57;;;2.90;99.90;;;3.48;96.88;96184.97;10357416;28;20289;-83
2023/11/30 14:41:37;;;;;;;9.17;8.37;;;2.90;99.90;;;3.44;97.26;96193.19;10363268;28;20281;-78
2023/11/30 14:46:41;;;;;;;11.30;10.20;;;2.90;99.90;;;3.45;97.82;96199.97;10358404;28;20222;-82
2023/11/30 14:51:46;;;;;;;10.00;9.10;;;2.90;99.90;;;3.54;98.13;96199.59;10357861;28;20234;-79
2023/11/30 14:56:50;;;;;;;30.90;17.03;;;3.00;99.90;;;3.48;98.41;96210.22;10355600;28;20581;-78
2023/11/30 15:01:53;;;;;;;15.33;11.93;;;2.90;99.90;;;3.53;98.66;96210.50;10356562;28;20667;-78
2023/11/30 15:06:58;;;;;;;15.77;11.93;;;3.00;99.90;;;3.61;98.90;96207.63;10354469;28;20237;-78
2023/11/30 15:12:01;;;;;;;10.40;9.30;;;3.00;99.90;;;3.58;99.35;96222.63;10360141;28;20219;-78
2023/11/30 15:17:05;;;;;;;9.37;8.50;;;2.90;99.90;;;3.59;99.91;96191.50;10358878;28;20230;-80
2023/11/30 15:22:09;;;;;;;9.90;8.97;;;3.00;99.90;;;3.59;100.00;96181.41;10356275;28;20222;-78
2023/11/30 15:27:13;;;;;;;11.13;9.97;;;3.00;99.90;;;3.51;100.00;96175.03;10357643;28;20234;-78
2023/11/30 15:32:16;;;;;;;9.80;8.87;;;2.90;99.90;;;3.52;100.00;96197.00;10358792;28;20223;-77
2023/11/30 15:37:21;;;;;;;13.77;10.57;;;2.90;99.90;;;3.49;100.00;96204.41;10359270;28;20238;-78
2023/11/30 15:42:25;;;;;;;8.80;8.00;;;2.90;99.90;;;3.52;100.00;96202.06;10358320;28;20656;-78
2023/11/30 15:47:28;;;;;;;7.87;7.17;;;2.90;99.90;;;3.51;100.00;96230.59;10356755;28;20230;-79
2023/11/30 15:52:33;;;;;;;9.80;8.90;;;2.90;99.90;;;3.48;100.00;96230.44;10357589;28;20214;-79
2023/11/30 15:57:36;;;;;;;10.40;9.33;;;2.90;99.90;;;3.54;100.00;96253.50;10356495;28;20236;-78
2023/11/30 16:02:39;;;;;;;14.30;12.57;;;2.80;99.90;;;3.53;100.00;96256.84;10358613;28;20227;-78
2023/11/30 16:07:44;;;;;;;12.33;10.93;;;2.90;99.90;;;3.47;100.00;96253.97;10359586;28;20226;-80
2023/11/30 16:12:48;;;;;;;235.37;146.03;;;2.80;99.90;;;3.48;100.00;96235.47;10360703;28;20222;-80
2023/11/30 16:17:51;;;;;;;17.60;14.97;;;2.80;99.90;;;3.38;100.00;96248.38;10357565;28;20232;-80
2023/11/30 16:22:56;;;;;;;18.83;16.83;;;2.80;99.90;;;3.32;100.00;96207.59;10364621;28;20230;-77
2023/11/30 16:27:59;;;;;;;24.90;20.67;;;2.70;99.90;;;3.33;100.00;96227.91;10361984;28;20288;-79
2023/11/30 16:33:03;;;;;;;24.33;17.87;;;2.70;99.90;;;3.35;100.00;96250.72;10356513;28;20236;-79
2023/11/30 16:38:09;;;;;;;21.00;17.00;;;2.70;99.90;;;3.35;100.00;96226.34;10348249;28;20222;-79
2023/11/30 16:43:12;;;;;;;27.43;19.70;;;2.70;99.90;;;3.26;100.00;96238.44;10356445;28;20257;-80
2023/11/30 16:48:15;;;;;;;14.63;13.10;;;2.70;99.90;;;3.23;100.00;96234.84;10350409;28;20336;-77
2023/11/30 16:53:20;;;;;;;10.43;9.33;;;2.70;99.90;;;3.24;100.00;96244.19;10351366;28;20245;-80
2023/11/30 16:58:28;;;;;;;11.70;9.97;;;2.70;99.90;;;3.28;100.00;96226.75;10347875;28;20232;-79
2023/11/30 17:03:32;;;;;;;12.47;11.13;;;2.70;99.90;;;3.31;100.00;96200.81;10351851;28;20285;-79
2023/11/30 17:08:36;;;;;;;16.80;15.17;;;2.70;99.90;;;3.30;100.00;96229.38;10358800;28;20226;-79
2023/11/30 17:13:41;;;;;;;15.27;13.87;;;2.60;99.90;;;3.23;100.00;96247.47;10370910;28;20237;-81
2023/11/30 17:18:46;;;;;;;13.23;11.93;;;2.60;99.90;;;3.23;100.00;96247.47;10366336;28;20222;-83
2023/11/30 17:23:51;;;;;;;14.63;13.20;;;2.60;99.90;;;3.24;100.00;96244.19;10367300;28;20285;-82
2023/11/30 17:28:54;;;;;;;16.97;15.37;;;2.60;99.90;;;3.22;100.00;96217.97;10364549;28;20230;-81
2023/11/30 17:33:57;;;;;;;35.83;26.97;;;2.60;99.90;;;3.24;100.00;96224.84;10365507;28;20222;-81
2023/11/30 17:39:03;;;;;;;30.77;22.17;;;2.60;99.90;;;3.26;100.00;96203.09;10364821;28;20549;-80
2023/11/30 17:44:06;;;;;;;13.30;12.00;;;2.60;99.90;;;3.12;100.00;96231.72;10363967;28;20301;-81
2023/11/30 17:49:09;;;;;;;14.83;13.23;;;2.50;99.90;;;3.12;100.00;96240.16;10363730;28;20231;-82
2023/11/30 17:54:14;;;;;;;15.10;13.50;;;2.50;99.90;;;3.14;100.00;96230.13;10363884;28;20276;-80
2023/11/30 17:59:17;;;;;;;13.73;12.43;;;2.50;99.90;;;3.12;100.00;96221.63;10365780;28;20233;-81
2023/11/30 18:04:20;;;;;;;17.80;15.50;;;2.50;99.90;;;3.14;100.00;96248.66;10363467;28;20313;-83
2023/11/30 18:09:25;;;;;;;26.97;23.67;;;2.50;99.90;;;3.21;100.00;96247.41;10370970;28;20281;-81
2023/11/30 18:14:32;;;;;;;20.83;18.60;;;2.60;99.90;;;3.27;100.00;96234.25;10363973;28;20609;-80
2023/11/30 18:19:35;;;;;;;20.33;18.03;;;2.60;99.90;;;3.27;100.00;96246.88;10367358;28;20284;-83
2023/11/30 18:24:39;;;;;;;14.43;12.93;;;2.50;99.90;;;3.21;100.00;96244.88;10373419;28;20234;-81
2023/11/30 18:29:42;;;;;;;13.90;12.50;;;2.50;99.90;;;3.22;100.00;96238.16;10367999;28;20273;-81
2023/11/30 18:34:46;;;;;;;14.83;13.43;;;2.50;99.90;;;3.14;100.00;96241.09;10371399;28;20264;-83
2023/11/30 18:39:50;;;;;;;16.37;14.80;;;2.50;99.90;;;3.12;100.00;96235.09;10367322;28;20253;-82
2023/11/30 18:44:54;;;;;;;16.33;14.83;;;2.50;99.90;;;3.13;100.00;96241.03;10365918;28;20233;-82
2023/11/30 18:49:57;;;;;;;19.00;17.20;;;2.50;99.90;;;3.04;100.00;96231.25;10365501;28;20779;-81
2023/11/30 18:55:02;;;;;;;17.60;16.00;;;2.50;99.90;;;3.06;100.00;96224.66;10366232;28;20687;-80
2023/11/30 19:00:08;;;;;;;18.90;17.00;;;2.50;99.90;;;3.08;100.00;96218.03;10366454;28;20226;-80
2023/11/30 19:05:11;;;;;;;15.70;14.10;;;2.50;99.90;;;3.11;100.00;96213.16;10365211;28;20240;-82
2023/11/30 19:10:16;;;;;;;13.73;12.43;;;2.50;99.90;;;3.18;100.00;96224.50;10357953;28;20579;-84
2023/11/30 19:15:20;;;;;;;13.43;12.17;;;2.50;99.90;;;3.06;100.00;96239.78;10359886;28;20244;-82
2023/11/30 19:20:23;;;;;;;13.27;11.97;;;2.40;99.90;;;2.98;100.00;96210.72;10364709;28;20715;-80
2023/11/30 19:25:27;;;;;;;15.97;13.97;;;2.40;99.90;;;2.97;100.00;96200.50;10369149;28;20328;-83
2023/11/30 19:30:30;;;;;;;15.00;13.53;;;2.40;99.90;;;3.00;100.00;96234.34;10367851;28;20284;-81
2023/11/30 19:35:35;;;;;;;13.87;12.57;;;2.40;99.90;;;3.00;100.00;96223.41;10368410;28;20256;-83
2023/11/30 19:40:39;;;;;;;15.87;14.17;;;2.40;99.90;;;3.00;100.00;96238.53;10371677;28;20230;-81
2023/11/30 19:45:43;;;;;;;13.80;12.60;;;2.40;99.90;;;3.06;100.00;96221.22;10367027;28;20284;-80
2023/11/30 19:50:46;;;;;;;13.53;12.33;;;2.40;99.90;;;2.97;100.00;96231.66;10361094;28;20227;-83
2023/11/30 19:55:50;;;;;;;16.10;14.60;;;2.40;99.90;;;2.92;100.00;96235.59;10362456;28;20680;-84
2023/11/30 20:00:54;;;;;;;16.63;14.87;;;2.30;99.90;;;2.96;100.00;96236.63;10364282;28;20277;-82
2023/11/30 20:05:57;;;;;;;15.80;14.23;;;2.30;99.90;;;2.94;100.00;96246.63;10365243;28;20323;-83
2023/11/30 20:11:05;;;;;;;15.93;14.33;;;2.30;99.90;;;3.00;100.00;96228.44;10366530;28;20256;-83
2023/11/30 20:16:10;;;;;;;15.10;13.60;;;2.30;99.90;;;2.97;100.00;96228.28;10361340;28;20236;-83
2023/11/30 20:21:18;;;;;;;14.17;12.77;;;2.30;99.90;;;2.85;100.00;96258.69;10359216;28;20245;-80
2023/11/30 20:26:22;;;;;;;17.00;15.30;;;2.30;99.90;;;2.89;100.00;96266.53;10360622;28;20218;-82
2023/11/30 20:31:26;;;;;;;20.07;18.17;;;2.30;99.90;;;2.92;100.00;96255.78;10364414;28;20271;-79
2023/11/30 20:36:29;;;;;;;19.17;17.17;;;2.30;99.90;;;2.95;100.00;96248.38;10362411;28;20249;-81
2023/11/30 20:41:35;;;;;;;17.10;15.40;;;2.30;99.90;;;3.04;100.00;96246.41;10365085;28;20256;-82
2023/11/30 20:46:38;;;;;;;21.27;18.27;;;2.30;99.90;;;3.01;100.00;96266.41;10381393;28;20225;-81
2023/11/30 20:51:41;;;;;;;16.20;14.70;;;2.30;99.90;;;2.97;100.00;96264.47;10375176;28;20258;-80
2023/11/30 20:56:47;;;;;;;15.90;14.20;;;2.30;99.90;;;3.01;100.00;96266.41;10368096;28;20234;-80
2023/11/30 21:01:50;;;;;;;16.13;14.53;;;2.30;99.90;;;2.97;100.00;96261.94;10368469;28;20912;-81